Time;durP1;ratioP1;P1;durP2;ratioP2;P2;SDS_P1;SDS_P2;PMS_P1;PMS_P2;Temp;Humidity;BMP_temperature;BMP_pressure;BME280_temperature;BME280_humidity;BME280_pressure;Samples;Min_cycle;Max_cycle;Signal;HPM_P1;HPM_P2
2022/12/04 00:00:24;;;;;;;117.00;44.00;;;;;;;2.03;89.46;100832.58;103444;1278;25227;-59
2022/12/04 00:03:16;;;;;;;100.40;41.70;;;;;;;2.02;89.47;100830.83;103401;1312;22506;-59
2022/12/04 00:05:47;;;;;;;99.60;42.60;;;;;;;2.01;89.50;100827.94;103347;1285;22469;-61
2022/12/04 00:08:19;;;;;;;111.40;44.80;;;;;;;2.01;89.61;100829.20;103401;1285;22479;-59
2022/12/04 00:10:50;;;;;;;121.30;48.90;;;;;;;2.02;89.66;100828.39;103394;1284;22920;-59
2022/12/04 00:13:21;;;;;;;122.30;49.80;;;;;;;2.03;89.61;100829.17;103525;1285;22492;-60
2022/12/04 00:15:53;;;;;;;99.90;43.00;;;;;;;2.04;89.75;100835.86;103413;1312;22471;-59
2022/12/04 00:18:25;;;;;;;107.40;44.60;;;;;;;2.06;89.75;100842.44;103365;1284;22427;-61
2022/12/04 00:20:57;;;;;;;97.60;41.20;;;;;;;2.10;89.83;100845.80;103425;1285;25641;-59
2022/12/04 00:23:28;;;;;;;107.10;43.70;;;;;;;2.12;89.80;100849.64;103455;1284;22775;-59
2022/12/04 00:26:03;;;;;;;99.00;39.40;;;;;;;2.13;89.75;100846.72;103503;1308;22515;-61
2022/12/04 00:28:35;;;;;;;97.50;43.20;;;;;;;2.15;89.83;100840.94;104119;1290;22732;-61
2022/12/04 00:31:10;;;;;;;98.40;42.30;;;;;;;2.17;89.80;100835.59;103744;1309;22474;-59
2022/12/04 00:33:42;;;;;;;102.20;43.90;;;;;;;2.18;89.78;100831.23;103375;1309;23970;-59
2022/12/04 00:36:16;;;;;;;90.60;39.30;;;;;;;2.19;89.80;100832.80;103383;1284;22614;-60
2022/12/04 00:38:47;;;;;;;96.00;40.30;;;;;;;2.22;89.83;100839.40;103296;1282;22489;-59
2022/12/04 00:41:22;;;;;;;102.70;41.90;;;;;;;2.24;89.84;100837.25;103364;1308;22505;-60
2022/12/04 00:43:53;;;;;;;99.60;41.00;;;;;;;2.25;89.84;100828.98;103348;1283;22798;-60
2022/12/04 00:46:25;;;;;;;109.70;41.90;;;;;;;2.26;89.89;100827.39;103410;1309;26210;-60
2022/12/04 00:49:01;;;;;;;113.40;48.90;;;;;;;2.27;89.86;100825.09;103403;1306;22617;-59
2022/12/04 00:51:33;;;;;;;126.30;50.40;;;;;;;2.28;89.93;100826.73;103260;1285;22485;-60
2022/12/04 00:54:05;;;;;;;120.40;47.50;;;;;;;2.28;89.80;100827.60;103423;1290;22437;-59
2022/12/04 00:56:36;;;;;;;100.60;39.70;;;;;;;2.28;89.87;100827.52;103448;1288;26245;-60
2022/12/04 00:59:08;;;;;;;100.20;43.20;;;;;;;2.26;89.79;100828.34;103678;1307;22478;-60
2022/12/04 01:01:39;;;;;;;106.20;43.70;;;;;;;2.24;89.84;100825.28;103467;1282;22461;-60
2022/12/04 01:04:10;;;;;;;99.40;42.80;;;;;;;2.25;89.85;100822.68;103276;1284;22453;-61
2022/12/04 01:06:42;;;;;;;92.20;38.60;;;;;;;2.26;89.87;100820.46;103464;1292;25408;-59
2022/12/04 01:09:13;;;;;;;99.70;39.80;;;;;;;2.25;89.84;100816.63;103319;1281;22478;-59
2022/12/04 01:11:44;;;;;;;113.30;45.60;;;;;;;2.24;89.82;100808.68;103408;1312;24246;-60
2022/12/04 01:14:16;;;;;;;121.10;50.40;;;;;;;2.25;89.66;100806.09;103364;1312;25675;-61
2022/12/04 01:16:48;;;;;;;133.40;52.50;;;;;;;2.24;89.66;100803.48;103349;1309;22476;-59
2022/12/04 01:19:20;;;;;;;125.80;51.00;;;;;;;2.23;89.68;100805.06;103422;1285;22478;-59
2022/12/04 01:21:51;;;;;;;123.00;51.60;;;;;;;2.23;89.65;100797.67;103380;1283;24335;-60
2022/12/04 01:24:23;;;;;;;112.70;45.70;;;;;;;2.20;89.62;100788.56;103386;1312;22481;-61
2022/12/04 01:26:55;;;;;;;102.90;43.70;;;;;;;2.17;89.75;100787.27;103364;1290;22551;-60
2022/12/04 01:29:26;;;;;;;102.00;40.60;;;;;;;2.16;89.77;100785.54;103426;1285;25274;-60
2022/12/04 01:31:57;;;;;;;96.30;40.70;;;;;;;2.15;89.89;100784.45;103367;1298;22493;-60
2022/12/04 01:34:29;;;;;;;98.60;39.70;;;;;;;2.14;89.83;100783.74;103364;1306;24431;-59
2022/12/04 01:37:00;;;;;;;94.10;39.70;;;;;;;2.13;89.79;100783.28;103318;1307;23949;-58
2022/12/04 01:39:32;;;;;;;93.00;40.50;;;;;;;2.10;89.86;100790.72;103444;1295;23597;-58
2022/12/04 01:42:03;;;;;;;93.60;38.80;;;;;;;2.10;89.74;100784.89;103427;1285;24254;-59
2022/12/04 01:44:34;;;;;;;92.30;39.10;;;;;;;2.09;89.69;100785.60;103139;1303;261126;-59
2022/12/04 01:47:06;;;;;;;93.10;40.80;;;;;;;2.08;89.62;100774.29;103373;1286;22450;-60
2022/12/04 01:49:40;;;;;;;100.60;43.20;;;;;;;2.07;89.45;100772.50;103410;1288;25639;-60
2022/12/04 01:52:16;;;;;;;111.50;45.20;;;;;;;2.05;89.30;100775.41;103417;1303;22888;-60
2022/12/04 01:54:50;;;;;;;94.30;40.50;;;;;;;2.01;89.18;100773.10;103498;1309;22493;-59
2022/12/04 01:57:26;;;;;;;102.40;43.00;;;;;;;1.97;88.87;100776.28;103414;1281;25350;-61
2022/12/04 02:00:00;;;;;;;102.50;43.10;;;;;;;1.92;88.88;100777.51;103543;1297;24260;-62
2022/12/04 02:02:36;;;;;;;103.40;43.80;;;;;;;1.89;88.82;100778.88;103729;1312;25378;-61
2022/12/04 02:05:13;;;;;;;95.30;38.30;;;;;;;1.86;88.80;100779.30;103433;1285;22423;-59
2022/12/04 02:07:47;;;;;;;101.00;41.30;;;;;;;1.84;88.92;100774.92;103392;1281;25223;-60
2022/12/04 02:10:23;;;;;;;91.80;37.70;;;;;;;1.82;88.70;100769.58;103335;1285;22478;-60
2022/12/04 02:13:02;;;;;;;96.40;40.70;;;;;;;1.78;88.66;100766.63;103484;1306;22411;-60
2022/12/04 02:15:41;;;;;;;105.10;42.50;;;;;;;1.75;88.54;100763.98;103463;1289;25561;-61
2022/12/04 02:18:21;;;;;;;102.30;40.90;;;;;;;1.71;88.26;100770.31;103359;1307;22748;-61
2022/12/04 02:20:59;;;;;;;102.40;42.00;;;;;;;1.65;88.13;100767.52;103473;1283;22496;-59
2022/12/04 02:23:46;;;;;;;98.30;40.80;;;;;;;1.61;88.30;100768.27;103464;1281;22855;-59
2022/12/04 02:26:33;;;;;;;98.50;41.40;;;;;;;1.60;88.27;100767.80;103411;1309;24193;-59
2022/12/04 02:29:12;;;;;;;93.70;39.80;;;;;;;1.55;87.93;100767.99;103425;1281;22496;-61
2022/12/04 02:31:51;;;;;;;100.60;40.80;;;;;;;1.49;87.87;100771.42;103338;1285;22470;-59
2022/12/04 02:34:27;;;;;;;96.80;39.60;;;;;;;1.45;87.86;100775.05;103427;1306;22411;-60
2022/12/04 02:37:03;;;;;;;96.50;41.20;;;;;;;1.40;87.94;100772.44;104750;1306;24272;-61
2022/12/04 02:39:41;;;;;;;94.70;39.20;;;;;;;1.37;88.33;100762.00;103400;1306;22538;-59
2022/12/04 02:42:18;;;;;;;94.90;40.70;;;;;;;1.36;88.23;100765.71;103338;1293;22473;-59
2022/12/04 02:44:54;;;;;;;96.10;39.10;;;;;;;1.34;88.22;100762.18;103493;1301;25266;-60
2022/12/04 02:47:27;;;;;;;99.20;39.30;;;;;;;1.32;88.35;100760.86;103510;1279;24014;-59
2022/12/04 02:50:00;;;;;;;96.40;40.70;;;;;;;1.30;88.39;100763.77;103434;1288;25223;-59
2022/12/04 02:52:37;;;;;;;95.30;40.50;;;;;;;1.27;88.46;100762.30;103397;1306;22485;-61
2022/12/04 02:55:14;;;;;;;91.10;39.30;;;;;;;1.24;88.39;100764.77;103425;1306;24247;-61
2022/12/04 02:57:50;;;;;;;99.00;40.40;;;;;;;1.21;88.40;100766.27;103371;1306;22419;-59
2022/12/04 03:00:23;;;;;;;91.10;39.60;;;;;;;1.19;88.42;100770.23;103249;1288;22466;-60
2022/12/04 03:02:58;;;;;;;90.70;39.70;;;;;;;1.16;88.30;100772.59;103282;1306;24167;-60
2022/12/04 03:05:39;;;;;;;94.10;39.90;;;;;;;1.12;88.16;100773.95;103085;1298;22520;-61
2022/12/04 03:08:15;;;;;;;88.10;36.80;;;;;;;1.07;88.34;100775.17;103178;1281;25287;-61
2022/12/04 03:10:50;;;;;;;93.70;36.40;;;;;;;1.01;88.46;100771.11;103386;1291;22467;-60
2022/12/04 03:13:24;;;;;;;86.00;34.90;;;;;;;1.00;88.71;100769.77;103369;1285;24086;-60
2022/12/04 03:16:01;;;;;;;84.00;35.30;;;;;;;1.01;88.77;100767.73;103473;1292;24249;-59
2022/12/04 03:18:36;;;;;;;83.30;33.60;;;;;;;0.99;88.52;100761.00;103403;1284;25763;-59
2022/12/04 03:21:12;;;;;;;87.70;35.30;;;;;;;0.96;88.45;100761.10;103344;1283;22472;-61
2022/12/04 03:23:49;;;;;;;77.00;33.90;;;;;;;0.91;88.42;100761.11;103450;1306;23217;-61
2022/12/04 03:26:27;;;;;;;76.40;31.60;;;;;;;0.88;88.52;100762.31;103343;1306;22502;-61
2022/12/04 03:29:03;;;;;;;77.20;33.70;;;;;;;0.83;88.52;100766.74;103355;1281;22535;-60
2022/12/04 03:31:40;;;;;;;80.10;34.00;;;;;;;0.81;88.71;100769.25;103300;1306;22424;-59
2022/12/04 03:34:13;;;;;;;83.20;36.60;;;;;;;0.78;88.57;100767.23;103355;1306;25582;-61
2022/12/04 03:36:52;;;;;;;90.10;35.50;;;;;;;0.79;88.78;100767.84;103524;1304;25376;-60
2022/12/04 03:39:29;;;;;;;101.10;43.50;;;;;;;0.78;88.72;100768.88;103734;1290;22605;-59
2022/12/04 03:42:05;;;;;;;97.70;41.10;;;;;;;0.76;88.80;100767.88;103374;1298;23785;-61
2022/12/04 03:44:41;;;;;;;100.30;39.10;;;;;;;0.76;89.01;100767.02;103290;1285;22564;-60
2022/12/04 03:47:17;;;;;;;98.10;41.80;;;;;;;0.74;89.02;100768.51;103425;1281;24270;-59
2022/12/04 03:49:55;;;;;;;99.40;40.50;;;;;;;0.73;89.15;100767.33;103408;1306;22478;-61
2022/12/04 03:52:34;;;;;;;99.60;41.30;;;;;;;0.70;89.41;100762.23;103400;1285;25339;-60
2022/12/04 03:55:12;;;;;;;84.60;35.10;;;;;;;0.63;89.40;100769.56;103364;1285;22473;-62
2022/12/04 03:57:47;;;;;;;78.40;35.20;;;;;;;0.57;89.58;100769.98;103395;1307;22475;-60
2022/12/04 04:00:21;;;;;;;84.50;34.60;;;;;;;0.52;89.75;100770.48;103346;1306;22477;-59
2022/12/04 04:02:57;;;;;;;86.70;34.90;;;;;;;0.48;89.88;100770.41;103406;1282;24040;-61
2022/12/04 04:05:30;;;;;;;92.10;38.50;;;;;;;0.46;90.11;100768.86;103306;1278;22483;-58
2022/12/04 04:10:50;;;;;;;82.70;34.50;;;;;;;0.41;90.45;100762.67;103327;1285;24398;-61
2022/12/04 04:25:10;;;;;;;88.70;37.30;;;;;;;0.59;90.84;100748.87;102884;1315;22786;-59
2022/12/04 04:27:41;;;;;;;95.20;41.20;;;;;;;0.61;90.90;100748.00;102926;1313;226154;-58
2022/12/04 04:30:13;;;;;;;96.20;39.30;;;;;;;0.64;90.93;100751.83;102917;1291;22793;-57
2022/12/04 04:32:54;;;;;;;97.30;40.30;;;;;;;0.66;91.03;100749.55;102924;1313;22488;-59
2022/12/04 04:35:33;;;;;;;91.10;39.00;;;;;;;0.69;90.99;100744.89;102973;1289;22883;-57
2022/12/04 04:38:14;;;;;;;91.10;39.30;;;;;;;0.70;91.04;100734.36;102943;1289;22491;-58
2022/12/04 04:40:54;;;;;;;90.20;39.50;;;;;;;0.73;90.99;100736.23;103463;1313;22497;-59
2022/12/04 04:43:32;;;;;;;94.30;39.50;;;;;;;0.74;90.98;100738.83;103941;1284;24306;-61
2022/12/04 04:46:11;;;;;;;95.20;39.00;;;;;;;0.75;90.82;100739.52;103037;1284;22620;-59
2022/12/04 04:48:48;;;;;;;90.30;34.90;;;;;;;0.75;90.77;100738.52;102964;1284;23844;-59
2022/12/04 04:51:22;;;;;;;85.60;35.50;;;;;;;0.76;90.85;100731.20;102880;1313;25399;-59
2022/12/04 04:53:58;;;;;;;106.60;44.70;;;;;;;0.78;90.83;100727.89;103012;1304;24006;-60
2022/12/04 04:56:30;;;;;;;122.50;48.80;;;;;;;0.82;90.89;100729.67;103143;1282;25572;-60
2022/12/04 04:59:02;;;;;;;104.10;44.20;;;;;;;0.83;90.83;100725.89;102964;1290;22828;-59
2022/12/04 05:01:33;;;;;;;96.40;43.20;;;;;;;0.85;90.83;100722.90;102937;1283;22476;-59
2022/12/04 05:04:06;;;;;;;93.00;41.90;;;;;;;0.86;91.02;100729.82;103146;1287;25608;-59
2022/12/04 05:06:38;;;;;;;102.80;43.20;;;;;;;0.87;91.11;100731.85;103015;1313;24069;-60
2022/12/04 05:09:09;;;;;;;93.90;42.20;;;;;;;0.90;91.17;100730.80;103022;1290;25428;-60
2022/12/04 05:11:40;;;;;;;98.20;42.20;;;;;;;0.92;91.27;100727.65;102999;1291;22526;-59
2022/12/04 05:14:12;;;;;;;94.90;38.60;;;;;;;0.94;91.28;100726.55;103313;1310;24341;-59
2022/12/04 05:16:44;;;;;;;99.40;40.10;;;;;;;0.96;91.37;100728.65;103228;1288;22497;-60
2022/12/04 05:22:04;;;;;;;89.50;38.80;;;;;;;1.00;91.71;100727.69;103171;1288;22494;-58
2022/12/04 05:24:37;;;;;;;95.40;40.20;;;;;;;1.01;91.69;100729.17;103182;1309;22467;-59
2022/12/04 05:27:08;;;;;;;85.70;39.10;;;;;;;1.01;91.54;100736.70;103176;1282;22941;-59
2022/12/04 05:29:39;;;;;;;93.40;42.10;;;;;;;1.03;91.67;100738.34;103298;1280;26719;-60
2022/12/04 05:32:11;;;;;;;88.90;38.40;;;;;;;1.03;91.60;100747.86;103419;1305;22476;-60
2022/12/04 05:34:43;;;;;;;89.00;38.60;;;;;;;1.03;91.66;100745.58;103198;1294;22426;-60
2022/12/04 05:37:14;;;;;;;91.90;39.30;;;;;;;1.03;91.64;100745.27;103276;1287;22443;-59
2022/12/04 05:39:45;;;;;;;85.10;39.40;;;;;;;1.03;91.58;100735.36;103282;1310;22489;-58
2022/12/04 05:42:17;;;;;;;97.80;42.60;;;;;;;1.04;91.61;100739.20;103080;1287;22757;-58
2022/12/04 05:44:50;;;;;;;99.10;41.40;;;;;;;1.02;91.68;100732.61;103285;1288;25381;-60
2022/12/04 05:47:21;;;;;;;90.40;38.10;;;;;;;1.04;91.87;100736.61;103240;1303;24312;-59
2022/12/04 05:49:53;;;;;;;91.20;38.20;;;;;;;1.08;91.84;100742.47;103348;1285;25661;-60
2022/12/04 05:52:24;;;;;;;85.00;37.80;;;;;;;1.11;91.94;100741.84;103250;1282;24271;-59
2022/12/04 05:54:56;;;;;;;85.90;37.80;;;;;;;1.12;92.00;100746.63;103333;1307;25555;-61
2022/12/04 05:57:27;;;;;;;82.90;36.30;;;;;;;1.14;91.97;100748.73;103662;1283;22497;-58
2022/12/04 05:59:58;;;;;;;81.70;35.80;;;;;;;1.16;91.95;100752.09;103419;1307;22476;-61
2022/12/04 06:02:30;;;;;;;82.50;35.60;;;;;;;1.17;91.90;100750.83;103757;1274;22493;-61
2022/12/04 06:05:01;;;;;;;81.80;35.70;;;;;;;1.17;91.82;100748.55;103478;1275;22525;-60
2022/12/04 06:07:33;;;;;;;81.90;36.70;;;;;;;1.14;91.61;100746.13;103405;1291;24227;-58
2022/12/04 06:10:05;;;;;;;91.90;36.40;;;;;;;1.12;91.52;100742.21;103342;1291;23076;-59
2022/12/04 06:12:38;;;;;;;79.70;33.30;;;;;;;1.11;91.42;100744.58;103344;1307;22467;-60
2022/12/04 06:15:10;;;;;;;79.70;36.30;;;;;;;1.11;91.45;100747.89;103395;1284;22482;-59
2022/12/04 06:17:42;;;;;;;78.50;35.10;;;;;;;1.09;91.32;100753.39;103393;1283;22485;-59
2022/12/04 06:20:15;;;;;;;84.40;36.10;;;;;;;1.09;91.34;100759.37;103372;1285;22474;-60
2022/12/04 06:22:46;;;;;;;81.30;35.70;;;;;;;1.07;91.32;100766.99;103412;1283;22479;-59
2022/12/04 06:25:18;;;;;;;84.90;38.10;;;;;;;1.07;91.35;100773.36;103311;1285;22500;-59
2022/12/04 06:27:49;;;;;;;88.10;37.00;;;;;;;1.07;91.36;100778.78;103603;1307;25637;-60
2022/12/04 06:30:20;;;;;;;81.60;36.50;;;;;;;1.05;91.34;100775.25;103379;1283;22481;-62
2022/12/04 06:32:52;;;;;;;92.40;39.10;;;;;;;1.05;91.42;100779.90;103277;1284;22483;-61
2022/12/04 06:35:24;;;;;;;78.50;35.00;;;;;;;1.05;91.57;100773.69;103208;1283;22476;-61
2022/12/04 06:37:55;;;;;;;96.10;39.40;;;;;;;1.03;91.60;100773.85;103275;1285;22495;-61
2022/12/04 06:40:27;;;;;;;88.70;38.30;;;;;;;1.04;91.68;100774.55;103271;1285;22721;-61
2022/12/04 06:42:58;;;;;;;89.20;38.00;;;;;;;1.04;91.80;100778.71;103294;1277;22531;-61
2022/12/04 06:45:31;;;;;;;90.80;37.00;;;;;;;1.00;91.69;100778.81;103423;1281;22483;-61
2022/12/04 06:48:02;;;;;;;87.80;36.90;;;;;;;0.99;91.88;100780.79;103846;1282;24350;-62
2022/12/04 06:50:34;;;;;;;88.50;36.60;;;;;;;1.00;92.06;100778.91;103233;1277;22468;-62
2022/12/04 06:53:05;;;;;;;100.30;39.80;;;;;;;1.03;92.14;100782.56;103604;1284;22476;-60
2022/12/04 06:55:37;;;;;;;93.70;37.50;;;;;;;1.04;92.08;100776.91;103293;1281;22413;-62
2022/12/04 06:58:10;;;;;;;97.20;38.30;;;;;;;1.05;92.06;100778.71;103429;1284;22480;-62
2022/12/04 07:00:44;;;;;;;95.30;37.70;;;;;;;1.03;92.07;100781.39;103387;1285;22472;-61
2022/12/04 07:03:16;;;;;;;104.60;41.70;;;;;;;1.04;92.04;100784.91;103419;1285;22464;-60
2022/12/04 07:05:48;;;;;;;97.50;43.00;;;;;;;1.05;92.09;100784.21;103562;1299;22526;-59
2022/12/04 07:08:20;;;;;;;106.70;46.20;;;;;;;1.06;92.21;100784.74;103439;1282;25218;-60
2022/12/04 07:10:51;;;;;;;114.00;50.50;;;;;;;1.08;92.23;100781.67;103402;1306;25439;-60
2022/12/04 07:13:23;;;;;;;107.60;49.60;;;;;;;1.12;92.41;100777.19;103314;1278;22533;-61
2022/12/04 07:15:55;;;;;;;114.60;50.40;;;;;;;1.16;92.54;100781.95;103055;1301;22498;-61
2022/12/04 07:18:31;;;;;;;124.30;57.50;;;;;;;1.20;92.77;100784.98;103639;1281;24247;-63
2022/12/04 07:21:08;;;;;;;115.00;50.60;;;;;;;1.23;92.82;100783.94;103259;1285;25387;-63
2022/12/04 07:23:39;;;;;;;108.60;46.70;;;;;;;1.26;92.85;100785.74;103367;1306;24293;-62
2022/12/04 07:26:13;;;;;;;107.60;46.00;;;;;;;1.26;92.92;100783.62;103419;1285;25274;-62
2022/12/04 07:28:45;;;;;;;97.80;43.30;;;;;;;1.27;92.91;100775.11;103431;1286;22478;-62
2022/12/04 07:31:19;;;;;;;100.70;42.90;;;;;;;1.30;93.01;100772.42;103484;1275;22549;-61
2022/12/04 07:33:52;;;;;;;101.90;43.30;;;;;;;1.35;93.25;100766.49;103600;1283;22478;-60
2022/12/04 07:36:26;;;;;;;116.00;49.60;;;;;;;1.40;93.57;100768.34;103521;1277;24364;-62
2022/12/04 07:38:58;;;;;;;109.50;50.40;;;;;;;1.46;93.80;100769.48;103600;1306;24295;-63
2022/12/04 07:41:30;;;;;;;102.80;48.70;;;;;;;1.51;93.79;100773.69;103207;1283;22523;-62
2022/12/04 07:44:01;;;;;;;107.40;48.80;;;;;;;1.56;93.84;100769.41;103612;1299;22594;-62
2022/12/04 07:46:33;;;;;;;101.50;49.30;;;;;;;1.61;93.76;100765.83;102948;1288;22525;-63
2022/12/04 07:49:05;;;;;;;106.10;52.90;;;;;;;1.66;93.81;100770.19;103141;1293;24283;-63
2022/12/04 07:51:36;;;;;;;104.80;48.70;;;;;;;1.69;93.84;100779.11;106715;1287;22212;-63
2022/12/04 07:54:08;;;;;;;109.40;51.90;;;;;;;1.74;93.82;100786.95;104628;1283;26169;-63
2022/12/04 07:56:40;;;;;;;120.70;54.40;;;;;;;1.79;93.90;100791.71;106977;1270;22269;-64
2022/12/04 07:59:11;;;;;;;112.30;52.10;;;;;;;1.82;93.94;100793.33;104226;1278;23964;-62
2022/12/04 08:01:43;;;;;;;112.40;48.40;;;;;;;1.86;93.85;100789.99;102771;1281;25317;-62
2022/12/04 08:04:14;;;;;;;106.70;49.70;;;;;;;1.90;93.86;100788.70;103182;1307;22474;-62
2022/12/04 08:06:46;;;;;;;103.50;49.10;;;;;;;1.93;93.80;100781.91;103063;1299;24906;-61
2022/12/04 08:09:18;;;;;;;102.20;47.50;;;;;;;1.96;93.72;100784.23;103097;1283;24300;-62
2022/12/04 08:11:49;;;;;;;114.00;52.50;;;;;;;1.99;93.73;100785.39;103040;1283;22501;-62
2022/12/04 08:14:21;;;;;;;108.80;48.90;;;;;;;2.01;93.83;100782.22;103776;1283;25299;-61
2022/12/04 08:16:52;;;;;;;106.10;49.20;;;;;;;2.04;93.89;100783.77;105091;1286;25970;-64
2022/12/04 08:19:24;;;;;;;101.20;45.60;;;;;;;2.06;93.89;100783.98;103109;1306;27056;-64
2022/12/04 08:21:57;;;;;;;107.30;49.50;;;;;;;2.11;93.94;100786.21;104602;1307;25390;-63
2022/12/04 08:24:28;;;;;;;109.40;51.90;;;;;;;2.15;93.90;100785.31;102895;1285;23229;-64
2022/12/04 08:27:00;;;;;;;116.00;55.10;;;;;;;2.20;93.96;100787.70;102808;1302;22717;-65
2022/12/04 08:29:31;;;;;;;112.40;51.80;;;;;;;2.23;93.98;100789.08;103016;1278;22622;-64
2022/12/04 08:32:03;;;;;;;122.30;54.80;;;;;;;2.28;93.97;100783.98;102916;1282;24115;-65
2022/12/04 08:34:34;;;;;;;117.30;54.60;;;;;;;2.32;94.03;100779.63;102835;1306;22487;-64
2022/12/04 08:37:05;;;;;;;108.70;52.50;;;;;;;2.36;94.06;100777.14;103221;1285;22506;-66
2022/12/04 08:39:40;;;;;;;111.50;51.40;;;;;;;2.42;94.10;100779.74;103088;1277;22479;-63
2022/12/04 08:42:15;;;;;;;114.50;52.40;;;;;;;2.47;94.13;100780.56;103865;1306;22552;-62
2022/12/04 08:44:49;;;;;;;107.90;47.00;;;;;;;2.53;94.14;100780.33;103044;1291;22588;-61
2022/12/04 08:47:24;;;;;;;97.00;46.70;;;;;;;2.58;94.12;100783.11;103237;1282;26570;-61
2022/12/04 08:49:56;;;;;;;102.50;49.40;;;;;;;2.64;94.03;100783.83;104181;1277;23918;-62
2022/12/04 08:52:28;;;;;;;97.60;44.60;;;;;;;2.70;94.25;100783.10;103259;1274;26629;-62
2022/12/04 08:55:00;;;;;;;91.60;43.00;;;;;;;2.77;94.32;100783.51;103306;1285;22759;-63
2022/12/04 08:57:32;;;;;;;90.40;43.60;;;;;;;2.85;94.51;100784.27;103126;1307;22616;-61
2022/12/04 09:00:05;;;;;;;101.20;47.60;;;;;;;2.93;94.72;100783.39;103202;1277;22479;-61
2022/12/04 09:02:37;;;;;;;96.10;44.30;;;;;;;3.03;94.64;100784.19;103311;1282;23167;-61
2022/12/04 09:05:12;;;;;;;87.10;40.40;;;;;;;3.12;94.72;100789.27;103195;1281;25296;-62
2022/12/04 09:07:44;;;;;;;95.50;44.40;;;;;;;3.21;94.83;100786.16;103173;1283;24489;-61
2022/12/04 09:10:17;;;;;;;98.00;43.50;;;;;;;3.31;94.80;100784.97;103579;1284;22607;-61
2022/12/04 09:12:48;;;;;;;83.50;41.60;;;;;;;3.43;94.96;100785.34;103165;1291;22506;-62
2022/12/04 09:15:20;;;;;;;88.70;40.10;;;;;;;3.54;94.72;100789.52;103166;1283;24263;-61
2022/12/04 09:17:54;;;;;;;85.30;39.90;;;;;;;3.64;94.59;100781.41;103194;1285;22475;-62
2022/12/04 09:20:26;;;;;;;84.60;39.60;;;;;;;3.74;94.81;100778.16;103148;1285;22468;-62
2022/12/04 09:22:59;;;;;;;72.50;37.20;;;;;;;3.84;94.43;100779.86;102842;1277;23103;-62
2022/12/04 09:25:31;;;;;;;79.50;38.60;;;;;;;3.93;94.33;100779.02;103416;1307;23521;-62
2022/12/04 09:28:03;;;;;;;70.40;33.60;;;;;;;4.00;94.25;100775.33;104733;1283;25340;-62
2022/12/04 09:30:35;;;;;;;73.00;31.90;;;;;;;4.07;94.04;100776.87;103038;1293;25230;-61
2022/12/04 09:33:07;;;;;;;76.70;35.20;;;;;;;4.14;93.81;100780.21;102865;1285;22454;-62
2022/12/04 09:35:40;;;;;;;76.70;34.50;;;;;;;4.20;93.69;100777.42;103079;1285;25561;-62
2022/12/04 09:38:12;;;;;;;68.90;33.20;;;;;;;4.26;93.61;100775.58;103476;1283;24228;-62
2022/12/04 09:40:49;;;;;;;79.50;35.90;;;;;;;4.30;93.48;100772.89;104288;1307;25485;-64
2022/12/04 09:43:31;;;;;;;80.80;36.60;;;;;;;4.35;93.37;100782.98;103027;1307;22487;-61
2022/12/04 09:46:09;;;;;;;75.50;34.30;;;;;;;4.39;93.24;100786.16;102973;1307;22474;-62
2022/12/04 09:48:47;;;;;;;72.00;35.60;;;;;;;4.43;93.18;100786.48;102892;1309;22466;-70
2022/12/04 09:51:23;;;;;;;76.30;33.50;;;;;;;4.46;93.13;100780.55;103232;1303;25365;-61
2022/12/04 09:54:02;;;;;;;72.80;34.70;;;;;;;4.49;92.91;100785.57;102860;1283;22967;-62
2022/12/04 09:56:34;;;;;;;70.30;31.90;;;;;;;4.52;92.88;100783.30;103680;1285;26191;-60
2022/12/04 09:59:11;;;;;;;71.60;34.40;;;;;;;4.53;92.60;100774.27;102768;1291;25226;-61
2022/12/04 10:01:46;;;;;;;65.60;32.50;;;;;;;4.54;92.69;100770.60;102970;1291;22592;-62
2022/12/04 10:04:19;;;;;;;69.60;33.50;;;;;;;4.56;92.60;100765.76;103259;1283;24247;-62
2022/12/04 10:06:57;;;;;;;69.60;33.30;;;;;;;4.57;92.67;100762.16;103250;1298;22471;-62
2022/12/04 10:09:37;;;;;;;68.80;33.80;;;;;;;4.59;92.49;100757.40;103073;1282;22475;-62
2022/12/04 10:12:21;;;;;;;79.00;38.70;;;;;;;4.61;92.61;100753.08;103133;1283;22468;-62
2022/12/04 10:15:18;;;;;;;79.40;37.50;;;;;;;4.63;92.54;100753.04;103032;1278;22480;-62
2022/12/04 10:18:10;;;;;;;79.20;37.50;;;;;;;4.66;92.53;100748.17;103155;1283;26501;-62
2022/12/04 10:21:03;;;;;;;70.10;33.30;;;;;;;4.69;92.43;100742.90;103135;1275;22738;-61
2022/12/04 10:23:49;;;;;;;63.70;30.10;;;;;;;4.72;92.54;100741.40;103153;1282;25301;-61
2022/12/04 10:26:25;;;;;;;68.90;32.00;;;;;;;4.76;92.50;100742.35;103082;1281;22611;-62
2022/12/04 10:29:02;;;;;;;64.60;28.90;;;;;;;4.79;92.46;100741.25;103115;1283;22499;-62
2022/12/04 10:31:36;;;;;;;61.30;30.10;;;;;;;4.82;92.47;100746.00;103047;1285;22534;-61
2022/12/04 10:34:16;;;;;;;58.00;25.40;;;;;;;4.87;92.51;100743.69;103121;1306;22503;-63
2022/12/04 10:36:51;;;;;;;59.00;29.00;;;;;;;4.91;92.41;100737.67;103251;1284;25468;-62
2022/12/04 10:39:27;;;;;;;61.20;29.60;;;;;;;4.96;92.51;100739.48;103215;1283;22485;-60
2022/12/04 10:42:04;;;;;;;56.80;26.80;;;;;;;5.01;92.44;100740.95;103203;1306;22538;-61
2022/12/04 10:44:35;;;;;;;65.80;29.80;;;;;;;5.05;92.28;100743.61;103185;1285;22568;-62
2022/12/04 10:47:11;;;;;;;68.10;30.20;;;;;;;5.10;92.29;100750.00;103199;1280;22519;-61
2022/12/04 10:49:44;;;;;;;64.20;30.80;;;;;;;5.13;92.21;100739.55;103240;1306;25345;-63
2022/12/04 10:52:17;;;;;;;65.60;31.00;;;;;;;5.17;92.12;100733.30;103094;1306;22467;-62
2022/12/04 10:54:53;;;;;;;60.50;28.60;;;;;;;5.21;92.14;100735.02;103028;1293;24330;-62
2022/12/04 10:57:39;;;;;;;55.70;26.50;;;;;;;5.24;92.08;100735.58;102919;1280;24079;-62
2022/12/04 11:00:27;;;;;;;57.60;27.10;;;;;;;5.27;91.89;100729.20;103481;1297;26521;-62
2022/12/04 11:03:00;;;;;;;57.30;28.10;;;;;;;5.30;91.93;100727.77;102960;1287;22469;-62
2022/12/04 11:05:35;;;;;;;61.30;27.80;;;;;;;5.34;91.88;100728.86;102905;1310;25270;-62
2022/12/04 11:08:22;;;;;;;55.70;25.30;;;;;;;5.38;91.86;100725.45;102999;1288;22617;-61
2022/12/04 11:11:02;;;;;;;56.70;25.10;;;;;;;5.42;91.82;100716.26;103273;1288;22526;-62
2022/12/04 11:13:35;;;;;;;63.40;28.50;;;;;;;5.45;91.70;100709.86;102968;1310;22478;-62
2022/12/04 11:16:08;;;;;;;59.70;29.50;;;;;;;5.47;91.60;100706.07;102807;1286;22551;-60
2022/12/04 11:18:50;;;;;;;52.40;23.90;;;;;;;5.50;91.58;100702.36;102822;1287;25395;-61
2022/12/04 11:21:27;;;;;;;48.50;23.40;;;;;;;5.53;91.37;100710.13;102827;1280;24354;-60
2022/12/04 11:23:59;;;;;;;47.60;22.00;;;;;;;5.56;91.35;100707.13;102725;1286;22513;-61
2022/12/04 11:26:38;;;;;;;48.50;21.20;;;;;;;5.59;91.38;100702.99;103353;1309;24334;-61
2022/12/04 11:29:17;;;;;;;50.20;22.40;;;;;;;5.64;91.40;100700.35;103113;1286;24530;-62
2022/12/04 11:31:55;;;;;;;41.40;20.70;;;;;;;5.68;91.47;100707.83;102839;1294;24239;-61
2022/12/04 11:34:33;;;;;;;46.00;21.10;;;;;;;5.73;91.26;100701.95;102768;1309;22641;-61
2022/12/04 11:37:06;;;;;;;45.70;20.60;;;;;;;5.77;91.18;100692.34;102810;1303;22467;-62
2022/12/04 11:39:41;;;;;;;43.00;19.90;;;;;;;5.81;91.06;100689.00;102761;1287;22512;-63
2022/12/04 11:42:22;;;;;;;43.80;19.80;;;;;;;5.84;91.05;100685.91;102788;1307;22536;-62
2022/12/04 11:44:56;;;;;;;51.30;21.20;;;;;;;5.88;90.99;100681.30;102798;1301;24404;-62
2022/12/04 11:47:29;;;;;;;46.70;21.40;;;;;;;5.91;90.84;100674.50;102734;1283;22708;-62
2022/12/04 11:50:11;;;;;;;43.90;20.10;;;;;;;5.95;90.72;100672.43;102821;1285;22595;-62
2022/12/04 11:52:59;;;;;;;48.70;21.90;;;;;;;5.98;90.53;100668.84;102897;1303;22327;-62
2022/12/04 11:55:38;;;;;;;48.00;20.60;;;;;;;6.02;90.41;100671.84;102862;1283;22514;-64